createdAt,value
2022-12-09T00:01:07.608Z,1008.298
2022-12-09T00:06:09.308Z,1008.29
2022-12-09T00:11:05.298Z,1008.225
2022-12-09T00:16:08.742Z,1008.281
2022-12-09T00:21:14.111Z,1008.27
2022-12-09T00:26:05.140Z,1008.241
2022-12-09T00:31:06.875Z,1008.239
2022-12-09T00:36:11.850Z,1008.227
2022-12-09T00:41:05.603Z,1008.242
2022-12-09T00:46:05.371Z,1008.327
2022-12-09T00:51:05.742Z,1008.372
2022-12-09T00:56:05.392Z,1008.321
2022-12-09T01:01:05.361Z,1008.301
2022-12-09T01:06:05.542Z,1008.442
2022-12-09T01:11:05.135Z,1008.404
2022-12-09T01:16:05.968Z,1008.452
2022-12-09T01:21:05.458Z,1008.405
2022-12-09T01:26:06.454Z,1008.445
2022-12-09T01:31:07.972Z,1008.469
2022-12-09T01:36:07.572Z,1008.503
2022-12-09T01:41:05.443Z,1008.475
2022-12-09T01:46:06.448Z,1008.517
2022-12-09T01:51:06.593Z,1008.513
2022-12-09T01:56:07.161Z,1008.562
2022-12-09T02:01:05.583Z,1008.55
2022-12-09T02:06:05.729Z,1008.529
2022-12-09T02:11:10.991Z,1008.504
2022-12-09T02:16:06.259Z,1008.461
2022-12-09T02:21:07.670Z,1008.459
2022-12-09T02:26:09.555Z,1008.417
2022-12-09T02:31:12.602Z,1008.381
2022-12-09T02:36:06.514Z,1008.351
2022-12-09T02:41:07.592Z,1008.325
2022-12-09T02:46:05.961Z,1008.352
2022-12-09T02:51:07.380Z,1008.323
2022-12-09T02:56:06.432Z,1008.262
2022-12-09T03:01:05.341Z,1008.292
2022-12-09T03:06:08.927Z,1008.248
2022-12-09T03:11:06.919Z,1008.189
2022-12-09T03:16:07.684Z,1008.175
2022-12-09T03:21:07.529Z,1008.065
2022-12-09T03:26:06.105Z,1008.09
2022-12-09T03:31:07.560Z,1008.139
2022-12-09T03:36:08.421Z,1008.109
2022-12-09T03:41:08.273Z,1008.141
2022-12-09T03:46:05.570Z,1008.126
2022-12-09T03:51:09.467Z,1008.033
2022-12-09T03:56:07.942Z,1008.056
2022-12-09T04:01:06.060Z,1008.058
2022-12-09T04:06:05.538Z,1007.954
2022-12-09T04:11:05.533Z,1007.915
2022-12-09T04:16:05.382Z,1007.923
2022-12-09T04:21:09.119Z,1007.949
2022-12-09T04:26:05.478Z,1007.961
2022-12-09T04:31:05.199Z,1007.921
2022-12-09T04:36:12.493Z,1007.949
2022-12-09T04:41:07.754Z,1007.938
2022-12-09T04:46:09.109Z,1007.886
2022-12-09T04:51:05.201Z,1007.871
2022-12-09T04:56:09.482Z,1007.873
2022-12-09T05:01:09.015Z,1007.867
2022-12-09T05:06:06.459Z,1007.893
2022-12-09T05:11:05.593Z,1007.906
2022-12-09T05:16:13.917Z,1007.89
2022-12-09T05:21:08.170Z,1007.862
2022-12-09T05:26:05.929Z,1007.853
2022-12-09T05:31:07.826Z,1007.935
2022-12-09T05:36:08.281Z,1007.909
2022-12-09T05:41:07.891Z,1007.918
2022-12-09T05:46:05.729Z,1007.864
2022-12-09T05:51:06.643Z,1007.87
2022-12-09T05:56:07.500Z,1007.883
2022-12-09T06:01:11.390Z,1007.821
2022-12-09T06:06:09.692Z,1007.879
2022-12-09T06:11:06.542Z,1007.865
2022-12-09T06:16:10.765Z,1007.865
2022-12-09T06:25:04.885Z,1007.878
2022-12-09T06:29:35.481Z,1007.834
2022-12-09T06:40:55.453Z,1007.694
2022-12-09T06:45:55.320Z,1007.709
2022-12-09T06:50:54.456Z,1007.734
2022-12-09T06:55:54.154Z,1007.723
2022-12-09T07:00:54.424Z,1007.749
2022-12-09T07:05:54.507Z,1007.748
2022-12-09T07:10:56.946Z,1007.73
2022-12-09T07:15:54.043Z,1007.638
2022-12-09T07:20:54.154Z,1007.706
2022-12-09T07:26:03.039Z,1007.725
2022-12-09T07:30:53.980Z,1007.826
2022-12-09T07:35:55.743Z,1007.888
2022-12-09T07:40:55.584Z,1007.907
2022-12-09T07:45:55.099Z,1007.91
2022-12-09T07:50:55.181Z,1007.999
2022-12-09T07:55:54.344Z,1008.041
2022-12-09T08:00:54.108Z,1008.069
2022-12-09T08:05:55.821Z,1008.075
2022-12-09T08:10:54.673Z,1008.073
2022-12-09T08:15:54.121Z,1008.069
2022-12-09T08:20:54.125Z,1008.108
2022-12-09T08:25:56.518Z,1008.123
2022-12-09T08:30:54.096Z,1008.177
2022-12-09T08:35:58.136Z,1008.175
2022-12-09T08:40:54.161Z,1008.139
2022-12-09T08:45:54.086Z,1008.084
2022-12-09T08:50:54.197Z,1008.016
2022-12-09T08:55:54.044Z,1008.055
2022-12-09T09:00:54.402Z,1007.997
2022-12-09T09:07:50.611Z,1007.951
2022-12-09T09:10:41.633Z,1007.947
2022-12-09T09:15:42.910Z,1007.917
2022-12-09T09:20:40.853Z,1007.988
2022-12-09T09:25:46.982Z,1008.12
2022-12-09T09:30:41.504Z,1008.088
2022-12-09T09:35:43.646Z,1008.098
2022-12-09T09:40:45.226Z,1008.112
2022-12-09T09:45:41.066Z,1008.092
2022-12-09T09:50:45.548Z,1008.11
2022-12-09T09:55:46.738Z,1008.137
2022-12-09T10:00:46.055Z,1008.169
2022-12-09T10:05:48.865Z,1008.178
2022-12-09T10:10:48.373Z,1008.119
2022-12-09T10:15:45.939Z,1008.088
2022-12-09T10:20:41.785Z,1008.09
2022-12-09T10:25:41.904Z,1008.119
2022-12-09T10:30:44.612Z,1008.176
2022-12-09T10:35:40.450Z,1008.078
2022-12-09T10:40:43.020Z,1008.031
2022-12-09T10:46:16.768Z,1007.975
2022-12-09T10:50:41.216Z,1007.887
2022-12-09T10:55:41.961Z,1007.91
2022-12-09T11:00:40.336Z,1007.968
2022-12-09T11:05:40.395Z,1007.99
2022-12-09T11:10:41.179Z,1007.987
2022-12-09T11:15:42.970Z,1008.038
2022-12-09T11:20:40.987Z,1007.951
2022-12-09T11:25:43.958Z,1008.067
2022-12-09T11:31:04.742Z,1008.124
2022-12-09T11:35:42.103Z,1008.101
2022-12-09T11:40:40.709Z,1007.978
2022-12-09T11:45:41.128Z,1008.036
2022-12-09T11:50:43.187Z,1007.996
2022-12-09T11:55:41.623Z,1007.968
2022-12-09T12:00:46.196Z,1007.926
2022-12-09T12:06:10.958Z,1007.854
2022-12-09T12:10:58.643Z,1007.81
2022-12-09T12:15:43.941Z,1007.817
2022-12-09T12:20:45.857Z,1007.734
2022-12-09T12:25:45.858Z,1007.759
2022-12-09T12:30:45.923Z,1007.64
2022-12-09T12:35:49.482Z,1007.611
2022-12-09T12:40:43.442Z,1007.628
2022-12-09T12:45:58.448Z,1007.62
2022-12-09T12:50:59.785Z,1007.705
2022-12-09T12:55:53.506Z,1007.704
2022-12-09T13:00:47.112Z,1007.605
2022-12-09T13:05:41.879Z,1007.535
2022-12-09T13:10:42.917Z,1007.44
2022-12-09T13:15:41.598Z,1007.442
2022-12-09T13:20:43.964Z,1007.485
2022-12-09T13:25:42.175Z,1007.458
2022-12-09T13:30:43.580Z,1007.409
2022-12-09T13:35:43.291Z,1007.43
2022-12-09T13:40:41.507Z,1007.333
2022-12-09T13:45:51.526Z,1007.294
2022-12-09T13:50:44.380Z,1007.256
2022-12-09T13:55:44.493Z,1007.351
2022-12-09T14:00:44.788Z,1007.347
2022-12-09T14:05:41.423Z,1007.286
2022-12-09T14:10:48.002Z,1007.271
2022-12-09T14:15:44.020Z,1007.311
2022-12-09T14:20:43.551Z,1007.294
2022-12-09T14:25:54.658Z,1007.307
2022-12-09T14:30:56.019Z,1007.306
2022-12-09T14:35:44.980Z,1007.325
2022-12-09T14:40:50.764Z,1007.314
2022-12-09T14:45:48.267Z,1007.401
2022-12-09T14:50:40.836Z,1007.427
2022-12-09T14:55:43.566Z,1007.398
2022-12-09T15:00:41.537Z,1007.429
2022-12-09T15:05:41.184Z,1007.365
2022-12-09T15:10:42.473Z,1007.335
2022-12-09T15:15:42.225Z,1007.416
2022-12-09T15:20:42.587Z,1007.418
2022-12-09T15:25:48.320Z,1007.415
2022-12-09T15:30:41.655Z,1007.419
2022-12-09T15:35:41.281Z,1007.41
2022-12-09T15:40:50.840Z,1007.451
2022-12-09T15:45:41.622Z,1007.555
2022-12-09T15:50:42.615Z,1007.577
2022-12-09T15:55:43.564Z,1007.628
2022-12-09T16:00:40.713Z,1007.597
2022-12-09T16:05:51.088Z,1007.627
2022-12-09T16:10:48.428Z,1007.644
2022-12-09T16:15:51.469Z,1007.635
2022-12-09T16:20:45.370Z,1007.64
2022-12-09T16:25:47.265Z,1007.679
2022-12-09T16:30:47.864Z,1007.665
2022-12-09T16:35:42.571Z,1007.647
2022-12-09T16:40:50.777Z,1007.698
2022-12-09T16:45:41.152Z,1007.748
2022-12-09T16:50:41.096Z,1007.743
2022-12-09T16:55:39.917Z,1007.629
2022-12-09T17:00:41.063Z,1007.686
2022-12-09T17:05:43.359Z,1007.694
2022-12-09T17:10:40.781Z,1007.744
2022-12-09T17:15:40.097Z,1007.898
2022-12-09T17:20:41.132Z,1007.854
2022-12-09T17:25:42.543Z,1007.932
2022-12-09T17:30:40.451Z,1007.952
2022-12-09T17:35:40.790Z,1007.927
2022-12-09T17:40:39.955Z,1007.953
2022-12-09T17:45:42.348Z,1007.99
2022-12-09T17:50:39.759Z,1008.01
2022-12-09T17:55:41.057Z,1007.948
2022-12-09T18:00:41.786Z,1007.95
2022-12-09T18:05:40.343Z,1007.967
2022-12-09T18:10:40.163Z,1007.944
2022-12-09T18:15:40.645Z,1007.891
2022-12-09T18:20:40.945Z,1007.943
2022-12-09T18:25:43.873Z,1007.945
2022-12-09T18:30:41.330Z,1008.001
2022-12-09T18:35:43.102Z,1008.132
2022-12-09T18:40:52.437Z,1008.161
2022-12-09T18:45:40.067Z,1008.135
2022-12-09T18:50:32.471Z,1008.155
2022-12-09T18:53:06.361Z,1008.221
2022-12-09T18:58:36.795Z,1008.32
2022-12-09T18:59:35.292Z,1008.331
2022-12-09T19:03:15.543Z,1008.45
2022-12-09T19:07:47.269Z,1008.567
2022-12-09T19:12:56.315Z,1008.599
2022-12-09T19:17:47.274Z,1008.515
2022-12-09T19:22:47.405Z,1008.441
2022-12-09T19:27:47.960Z,1008.357
2022-12-09T19:32:52.937Z,1008.321
2022-12-09T19:37:49.935Z,1008.287
2022-12-09T19:42:47.270Z,1008.232
2022-12-09T19:47:50.524Z,1008.275
2022-12-09T19:52:47.582Z,1008.277
2022-12-09T19:57:47.260Z,1008.19
2022-12-09T20:02:50.546Z,1008.287
2022-12-09T20:07:47.384Z,1008.349
2022-12-09T20:12:47.362Z,1008.365
2022-12-09T20:17:47.514Z,1008.423
2022-12-09T20:22:47.396Z,1008.499
2022-12-09T20:27:47.580Z,1008.532
2022-12-09T20:32:48.364Z,1008.519
2022-12-09T20:37:49.079Z,1008.505
2022-12-09T20:42:47.711Z,1008.516
2022-12-09T20:47:47.606Z,1008.609
2022-12-09T20:52:47.648Z,1008.539
2022-12-09T20:57:52.120Z,1008.653
2022-12-09T21:02:47.204Z,1008.678
2022-12-09T21:07:47.414Z,1008.688
2022-12-09T21:12:47.251Z,1008.724
2022-12-09T21:18:01.440Z,1008.709
2022-12-09T21:23:04.379Z,1008.743
2022-12-09T21:27:48.732Z,1008.788
2022-12-09T21:32:47.205Z,1008.733
2022-12-09T21:37:49.615Z,1008.735
2022-12-09T21:42:47.306Z,1008.786
2022-12-09T21:47:47.843Z,1008.766
2022-12-09T21:52:47.729Z,1008.808
2022-12-09T21:57:47.401Z,1008.8
2022-12-09T22:02:47.324Z,1008.794
2022-12-09T22:07:47.409Z,1008.829
2022-12-09T22:12:47.670Z,1008.73
2022-12-09T22:17:47.362Z,1008.813
2022-12-09T22:22:47.367Z,1008.829
2022-12-09T22:27:47.334Z,1008.856
2022-12-09T22:32:50.781Z,1008.893
2022-12-09T22:37:47.807Z,1008.974
2022-12-09T22:42:47.501Z,1008.985
2022-12-09T22:47:47.261Z,1008.967
2022-12-09T22:52:47.555Z,1008.961
2022-12-09T22:57:47.282Z,1008.925
2022-12-09T23:02:47.630Z,1009.026
2022-12-09T23:07:47.182Z,1009.114
2022-12-09T23:12:47.391Z,1009.112
2022-12-09T23:17:47.365Z,1009.085
2022-12-09T23:22:47.319Z,1009.076
2022-12-09T23:27:47.476Z,1009.119
2022-12-09T23:32:47.527Z,1009.086
2022-12-09T23:37:47.449Z,1009.045
2022-12-09T23:47:56.954Z,1009.15
2022-12-09T23:52:33.888Z,1009.104
2022-12-09T23:57:33.884Z,1009.066
